createdAt,value
2023-02-11T00:00:22.466Z,100194.63
2023-02-11T00:02:49.228Z,100187.00
2023-02-11T00:05:16.241Z,100180.99
2023-02-11T00:07:43.008Z,100175.62
2023-02-11T00:10:10.179Z,100175.89
2023-02-11T00:12:38.235Z,100180.08
2023-02-11T00:15:06.443Z,100177.88
2023-02-11T00:17:33.453Z,100181.41
2023-02-11T00:20:00.234Z,100177.52
2023-02-11T00:22:27.444Z,100185.27
2023-02-11T00:24:54.338Z,100186.52
2023-02-11T00:27:21.236Z,100181.34
2023-02-11T00:29:47.992Z,100176.56
2023-02-11T00:32:14.809Z,100168.64
2023-02-11T00:34:41.778Z,100166.13
2023-02-11T00:37:08.565Z,100156.54
2023-02-11T00:39:35.303Z,100152.36
2023-02-11T00:42:03.552Z,100140.48
2023-02-11T00:44:30.463Z,100146.48
2023-02-11T00:46:57.279Z,100144.01
2023-02-11T00:49:25.356Z,100142.55
2023-02-11T00:51:52.124Z,100139.03
2023-02-11T00:54:20.240Z,100138.98
2023-02-11T00:56:47.026Z,100135.32
2023-02-11T00:59:13.961Z,100126.65
2023-02-11T01:01:44.116Z,100123.95
2023-02-11T01:04:11.058Z,100115.91
2023-02-11T01:06:37.844Z,100112.93
2023-02-11T01:09:05.522Z,100110.15
2023-02-11T01:11:35.541Z,100103.73
2023-02-11T01:14:02.745Z,100096.72
2023-02-11T01:16:29.567Z,100079.10
2023-02-11T01:18:56.365Z,100060.52
2023-02-11T01:21:23.105Z,100053.29
2023-02-11T01:23:50.703Z,100055.55
2023-02-11T01:26:17.512Z,100048.02
2023-02-11T01:28:44.672Z,100033.95
2023-02-11T01:31:11.552Z,100021.42
2023-02-11T01:33:38.633Z,100018.10
2023-02-11T01:36:07.485Z,100026.20
2023-02-11T01:38:34.938Z,100027.55
2023-02-11T01:41:08.642Z,100043.00
2023-02-11T01:43:39.926Z,100059.23
2023-02-11T01:46:23.475Z,100059.27
2023-02-11T01:49:07.218Z,100052.21
2023-02-11T01:51:40.199Z,100041.02
2023-02-11T01:54:26.421Z,100044.02
2023-02-11T01:57:12.467Z,100048.74
2023-02-11T01:59:48.658Z,100054.89
2023-02-11T02:02:20.279Z,100053.84
2023-02-11T02:04:55.376Z,100046.00
2023-02-11T02:07:33.478Z,100043.46
2023-02-11T02:10:07.695Z,100043.73
2023-02-11T02:12:36.394Z,100040.38
2023-02-11T02:15:19.829Z,100035.12
2023-02-11T02:17:57.735Z,100031.86
2023-02-11T02:20:31.919Z,100027.38
2023-02-11T02:23:14.206Z,100033.09
2023-02-11T02:25:50.714Z,100026.02
2023-02-11T02:28:37.011Z,100016.74
2023-02-11T02:31:20.501Z,100007.14
2023-02-11T02:34:00.639Z,99991.98
2023-02-11T02:36:43.438Z,99977.38
2023-02-11T02:39:20.541Z,99973.14
2023-02-11T02:41:51.131Z,99963.18
2023-02-11T02:44:20.021Z,99959.45
2023-02-11T02:46:46.962Z,99954.02
2023-02-11T02:49:15.844Z,99944.86
2023-02-11T02:51:59.099Z,99929.45
2023-02-11T02:54:42.179Z,99921.80
2023-02-11T02:57:09.936Z,99916.93
2023-02-11T02:59:59.833Z,99911.65
2023-02-11T03:02:41.708Z,99899.62
2023-02-11T03:05:12.219Z,99898.96
2023-02-11T03:07:39.954Z,99911.84
2023-02-11T03:10:17.188Z,99908.05
2023-02-11T03:12:46.385Z,99909.23
2023-02-11T03:15:14.959Z,99912.57
2023-02-11T03:17:44.351Z,99906.17
2023-02-11T03:20:14.705Z,99905.41
2023-02-11T03:22:49.614Z,99905.27
2023-02-11T03:25:16.997Z,99910.85
2023-02-11T03:27:54.260Z,99902.47
2023-02-11T03:30:30.705Z,99905.39
2023-02-11T03:33:08.632Z,99911.38
2023-02-11T03:35:41.944Z,99912.75
2023-02-11T03:38:15.928Z,99906.70
2023-02-11T03:40:45.763Z,99889.98
2023-02-11T03:43:17.193Z,99884.86
2023-02-11T03:45:46.359Z,99890.08
2023-02-11T03:48:20.689Z,99879.48
2023-02-11T03:50:50.462Z,99872.96
2023-02-11T03:53:19.212Z,99871.42
2023-02-11T03:55:48.670Z,99861.02
2023-02-11T03:58:15.841Z,99854.82
2023-02-11T04:00:43.682Z,99850.08
2023-02-11T04:03:11.877Z,99841.02
2023-02-11T04:05:39.182Z,99839.21
2023-02-11T04:08:06.705Z,99827.96
2023-02-11T04:10:33.566Z,99819.11
2023-02-11T04:13:00.264Z,99809.77
2023-02-11T04:15:27.144Z,99806.33
2023-02-11T04:17:53.986Z,99803.17
2023-02-11T04:20:20.983Z,99802.21
2023-02-11T04:22:47.733Z,99797.80
2023-02-11T04:25:14.643Z,99793.55
2023-02-11T04:27:41.386Z,99789.69
2023-02-11T04:30:08.710Z,99786.41
2023-02-11T04:32:35.485Z,99781.23
2023-02-11T04:35:03.095Z,99775.59
2023-02-11T04:37:30.094Z,99772.74
2023-02-11T04:39:56.903Z,99773.45
2023-02-11T04:42:23.816Z,99778.54
2023-02-11T04:44:50.655Z,99780.15
2023-02-11T04:47:18.199Z,99794.14
2023-02-11T04:49:45.121Z,99801.88
2023-02-11T04:52:11.868Z,99796.52
2023-02-11T04:54:38.762Z,99795.02
2023-02-11T04:57:05.739Z,99788.48
2023-02-11T04:59:32.445Z,99783.59
2023-02-11T05:01:59.267Z,99784.87
2023-02-11T05:04:26.119Z,99775.06
2023-02-11T05:06:52.913Z,99776.85
2023-02-11T05:09:19.997Z,99787.64
2023-02-11T05:11:46.802Z,99782.50
2023-02-11T05:14:13.829Z,99780.17
2023-02-11T05:16:40.862Z,99775.98
2023-02-11T05:19:07.650Z,99774.56
2023-02-11T05:21:34.723Z,99774.01
2023-02-11T05:24:01.498Z,99762.52
2023-02-11T05:26:28.372Z,99767.88
2023-02-11T05:28:55.273Z,99766.67
2023-02-11T05:31:22.099Z,99764.30
2023-02-11T05:33:48.833Z,99763.01
2023-02-11T05:36:16.937Z,99761.52
2023-02-11T05:38:43.821Z,99767.15
2023-02-11T05:41:11.615Z,99773.30
2023-02-11T05:43:38.462Z,99777.31
2023-02-11T05:46:06.025Z,99778.30
2023-02-11T05:48:33.202Z,99777.86
2023-02-11T05:51:00.036Z,99778.08
2023-02-11T05:53:26.790Z,99775.16
2023-02-11T05:55:53.894Z,99771.31
2023-02-11T05:58:20.808Z,99759.55
2023-02-11T06:00:47.565Z,99744.39
2023-02-11T06:03:14.342Z,99733.52
2023-02-11T06:05:43.469Z,99730.48
2023-02-11T06:08:10.515Z,99730.95
2023-02-11T06:10:37.535Z,99727.08
2023-02-11T06:13:04.585Z,99722.02
2023-02-11T06:15:31.304Z,99716.71
2023-02-11T06:17:58.049Z,99707.60
2023-02-11T06:20:24.946Z,99708.60
2023-02-11T06:22:51.687Z,99701.04
2023-02-11T06:25:18.588Z,99708.36
2023-02-11T06:27:45.471Z,99723.17
2023-02-11T06:30:12.942Z,99719.44
2023-02-11T06:32:44.580Z,99717.35
2023-02-11T06:35:13.564Z,99709.86
2023-02-11T06:37:41.763Z,99695.99
2023-02-11T06:40:09.755Z,99682.02
2023-02-11T06:42:38.853Z,99678.25
2023-02-11T06:45:07.787Z,99677.84
2023-02-11T06:47:34.642Z,99687.77
2023-02-11T06:50:01.367Z,99682.69
2023-02-11T06:52:28.180Z,99687.64
2023-02-11T06:54:54.950Z,99688.06
2023-02-11T06:57:21.648Z,99696.43
2023-02-11T06:59:48.959Z,99694.59
2023-02-11T07:02:16.781Z,99692.86
2023-02-11T07:04:44.763Z,99690.14
2023-02-11T07:07:11.486Z,99686.58
2023-02-11T07:09:38.266Z,99693.52
2023-02-11T07:12:05.107Z,99694.75
2023-02-11T07:14:31.786Z,99701.92
2023-02-11T07:16:58.548Z,99706.30
2023-02-11T07:19:25.292Z,99708.01
2023-02-11T07:21:51.969Z,99710.17
2023-02-11T07:24:18.836Z,99709.27
2023-02-11T07:26:45.650Z,99700.56
2023-02-11T07:29:12.456Z,99698.54
2023-02-11T07:31:40.413Z,99691.75
2023-02-11T07:34:07.303Z,99687.02
2023-02-11T07:36:34.236Z,99683.13
2023-02-11T07:39:00.994Z,99687.02
2023-02-11T07:41:28.172Z,99692.18
2023-02-11T07:43:55.321Z,99693.20
2023-02-11T07:46:25.361Z,99687.85
2023-02-11T07:48:53.081Z,99680.65
2023-02-11T07:51:25.848Z,99676.94
2023-02-11T07:53:53.562Z,99683.55
2023-02-11T07:56:21.553Z,99677.55
2023-02-11T07:58:48.954Z,99679.08
2023-02-11T08:01:22.581Z,99669.89
2023-02-11T08:03:49.496Z,99659.33
2023-02-11T08:06:18.655Z,99660.69
2023-02-11T08:08:45.929Z,99663.77
2023-02-11T08:11:15.533Z,99665.30
2023-02-11T08:13:42.740Z,99663.23
2023-02-11T08:16:10.409Z,99665.44
2023-02-11T08:18:37.169Z,99657.58
2023-02-11T08:21:06.117Z,99663.71
2023-02-11T08:23:33.458Z,99651.81
2023-02-11T08:26:03.705Z,99652.96
2023-02-11T08:28:30.773Z,99647.43
2023-02-11T08:30:57.778Z,99651.83
2023-02-11T08:33:24.516Z,99663.52
2023-02-11T08:35:51.644Z,99668.45
2023-02-11T08:38:18.400Z,99675.02
2023-02-11T08:40:45.141Z,99669.27
2023-02-11T08:43:11.887Z,99667.03
2023-02-11T08:45:38.648Z,99662.33
2023-02-11T08:48:05.515Z,99655.43
2023-02-11T08:50:32.374Z,99657.34
2023-02-11T08:52:59.104Z,99653.77
2023-02-11T08:55:25.878Z,99648.05
2023-02-11T08:57:52.705Z,99650.85
2023-02-11T09:00:19.878Z,99645.95
2023-02-11T09:02:46.579Z,99647.96
2023-02-11T09:05:14.059Z,99650.70
2023-02-11T09:07:40.866Z,99640.61
2023-02-11T09:10:08.754Z,99640.97
2023-02-11T09:12:35.651Z,99647.10
2023-02-11T09:15:02.343Z,99662.94
2023-02-11T09:17:29.129Z,99663.66
2023-02-11T09:19:55.833Z,99665.27
2023-02-11T09:22:22.641Z,99667.73
2023-02-11T09:24:49.443Z,99676.17
2023-02-11T09:27:16.166Z,99674.75
2023-02-11T09:29:43.111Z,99681.42
2023-02-11T09:32:10.207Z,99677.26
2023-02-11T09:34:37.260Z,99684.95
2023-02-11T09:37:04.104Z,99686.18
2023-02-11T09:39:30.983Z,99680.25
2023-02-11T09:42:05.588Z,99679.43
2023-02-11T09:44:35.225Z,99677.89
2023-02-11T09:47:07.393Z,99683.29
2023-02-11T09:49:43.070Z,99691.94
2023-02-11T09:52:30.839Z,99691.63
2023-02-11T09:55:00.304Z,99687.20
2023-02-11T09:57:32.458Z,99672.70
2023-02-11T10:00:00.530Z,99669.39
2023-02-11T10:02:32.390Z,99665.58
2023-02-11T10:05:17.696Z,99653.59
2023-02-11T10:07:59.445Z,99650.48
2023-02-11T10:10:26.826Z,99648.49
2023-02-11T10:13:03.170Z,99644.17
2023-02-11T10:15:45.040Z,99645.63
2023-02-11T10:18:20.116Z,99646.71
2023-02-11T10:21:12.928Z,99645.91
2023-02-11T10:23:45.461Z,99632.60
2023-02-11T10:26:16.180Z,99620.67
2023-02-11T10:28:47.029Z,99614.98
2023-02-11T10:31:28.978Z,99598.55
2023-02-11T10:34:00.277Z,99590.84
2023-02-11T10:36:32.577Z,99587.63
2023-02-11T10:39:12.446Z,99569.44
2023-02-11T10:41:45.321Z,99557.27
2023-02-11T10:44:24.308Z,99547.66
2023-02-11T10:46:52.479Z,99537.57
2023-02-11T10:49:44.218Z,99527.13
2023-02-11T10:52:16.856Z,99514.96
2023-02-11T10:55:03.319Z,99499.37
2023-02-11T10:57:36.313Z,99486.02
2023-02-11T11:00:28.812Z,99479.12
2023-02-11T11:02:58.945Z,99468.45
2023-02-11T11:05:31.743Z,99473.27
2023-02-11T11:08:01.950Z,99475.69
2023-02-11T11:10:35.789Z,99478.55
2023-02-11T11:13:03.359Z,99484.62
2023-02-11T11:15:31.988Z,99501.25
2023-02-11T11:18:22.547Z,99507.30
2023-02-11T11:21:14.828Z,99507.70
2023-02-11T11:23:52.498Z,99507.39
2023-02-11T11:26:20.040Z,99514.27
2023-02-11T11:28:46.821Z,99516.30
2023-02-11T11:31:19.122Z,99514.21
2023-02-11T11:33:47.868Z,99514.02
2023-02-11T11:36:21.451Z,99517.23
2023-02-11T11:39:01.047Z,99506.48
2023-02-11T11:41:29.191Z,99504.20
2023-02-11T11:44:25.322Z,99514.17
2023-02-11T11:47:12.374Z,99522.51
2023-02-11T11:49:39.233Z,99522.02
2023-02-11T11:52:20.583Z,99516.61
2023-02-11T11:54:55.438Z,99509.41
2023-02-11T11:57:29.675Z,99511.80
2023-02-11T11:59:58.133Z,99513.25
2023-02-11T12:02:41.725Z,99513.18
2023-02-11T12:05:20.186Z,99514.52
2023-02-11T12:07:54.297Z,99514.48
2023-02-11T12:10:35.571Z,99512.26
2023-02-11T12:13:33.299Z,99513.48
2023-02-11T12:16:30.925Z,99510.73
2023-02-11T12:19:14.335Z,99516.39
2023-02-11T12:21:41.037Z,99521.67
2023-02-11T12:24:30.733Z,99515.55
2023-02-11T12:27:10.902Z,99510.36
2023-02-11T12:29:58.237Z,99495.99
2023-02-11T12:32:39.908Z,99499.54
2023-02-11T12:35:13.320Z,99502.52
2023-02-11T12:37:56.462Z,99507.11
2023-02-11T12:40:35.113Z,99497.30
2023-02-11T12:43:20.622Z,99483.29
2023-02-11T12:46:18.407Z,99467.75
2023-02-11T12:49:08.284Z,99466.84
2023-02-11T12:51:49.392Z,99454.40
2023-02-11T12:54:31.886Z,99441.30
2023-02-11T12:57:14.213Z,99452.19
2023-02-11T12:59:41.201Z,99451.63
2023-02-11T13:02:19.077Z,99439.58
2023-02-11T13:04:54.248Z,99439.41
2023-02-11T13:07:31.114Z,99452.69
2023-02-11T13:10:08.134Z,99454.77
2023-02-11T13:12:52.423Z,99460.98
2023-02-11T13:15:19.349Z,99465.02
2023-02-11T13:17:52.862Z,99466.94
2023-02-11T13:20:42.905Z,99447.67
2023-02-11T13:23:23.490Z,99440.81
2023-02-11T13:25:58.002Z,99429.44
2023-02-11T13:28:46.671Z,99431.91
2023-02-11T13:31:16.466Z,99431.55
2023-02-11T13:33:44.487Z,99426.05
2023-02-11T13:36:15.205Z,99403.22
2023-02-11T13:38:52.964Z,99378.88
2023-02-11T13:41:27.862Z,99358.63
2023-02-11T13:44:00.440Z,99345.39
2023-02-11T13:46:30.838Z,99353.34
2023-02-11T13:48:58.383Z,99362.70
2023-02-11T13:51:42.473Z,99368.00
2023-02-11T13:54:22.735Z,99370.77
2023-02-11T13:57:24.655Z,99363.82
2023-02-11T13:59:55.414Z,99369.13
2023-02-11T14:02:53.693Z,99373.30
2023-02-11T14:05:42.089Z,99385.15
2023-02-11T14:08:25.435Z,99402.38
2023-02-11T14:10:56.212Z,99417.63
2023-02-11T14:13:31.823Z,99422.41
2023-02-11T14:16:18.680Z,99425.75
2023-02-11T14:18:55.408Z,99423.38
2023-02-11T14:21:25.965Z,99424.12
2023-02-11T14:23:56.107Z,99431.10
2023-02-11T14:26:35.049Z,99436.98
2023-02-11T14:29:15.511Z,99445.55
2023-02-11T14:31:54.430Z,99439.87
2023-02-11T14:34:40.288Z,99436.79
2023-02-11T14:37:22.786Z,99440.91
2023-02-11T14:40:11.080Z,99448.34
2023-02-11T14:42:38.461Z,99452.60
2023-02-11T14:45:11.096Z,99457.60
2023-02-11T14:48:13.356Z,99458.73
2023-02-11T14:51:00.556Z,99450.19
2023-02-11T14:53:30.623Z,99439.77
2023-02-11T14:55:57.625Z,99440.75
2023-02-11T14:58:28.179Z,99442.34
2023-02-11T15:01:00.278Z,99444.19
2023-02-11T15:03:33.486Z,99445.21
2023-02-11T15:06:12.941Z,99445.95
2023-02-11T15:08:47.401Z,99447.66
2023-02-11T15:11:18.218Z,99451.38
2023-02-11T15:13:49.803Z,99444.96
2023-02-11T15:16:22.085Z,99453.70
2023-02-11T15:18:54.527Z,99456.86
2023-02-11T15:21:27.656Z,99464.10
2023-02-11T15:24:00.558Z,99466.40
2023-02-11T15:26:28.010Z,99462.52
2023-02-11T15:28:56.373Z,99455.83
2023-02-11T15:31:25.590Z,99461.30
2023-02-11T15:33:53.277Z,99474.01
2023-02-11T15:36:29.016Z,99478.09
2023-02-11T15:39:19.740Z,99477.51
2023-02-11T15:41:46.564Z,99479.81
2023-02-11T15:44:30.640Z,99479.67
2023-02-11T15:46:58.162Z,99482.19
2023-02-11T15:49:26.591Z,99476.72
2023-02-11T15:51:57.011Z,99475.21
2023-02-11T15:54:29.607Z,99472.63
2023-02-11T15:57:03.843Z,99476.67
2023-02-11T15:59:35.569Z,99480.97
2023-02-11T16:02:10.424Z,99486.69
2023-02-11T16:04:38.078Z,99489.40
2023-02-11T16:07:05.457Z,99497.14
2023-02-11T16:09:35.211Z,99493.56
2023-02-11T16:12:07.604Z,99497.59
2023-02-11T16:14:37.416Z,99494.37
2023-02-11T16:17:07.439Z,99493.77
2023-02-11T16:19:35.865Z,99493.16
2023-02-11T16:22:09.360Z,99496.06
2023-02-11T16:24:38.434Z,99495.63
2023-02-11T16:27:18.998Z,99499.80
2023-02-11T16:29:48.722Z,99495.39
2023-02-11T16:32:17.771Z,99491.11
2023-02-11T16:34:45.205Z,99495.19
2023-02-11T16:37:12.286Z,99491.92
2023-02-11T16:39:39.264Z,99501.16
2023-02-11T16:42:07.849Z,99506.94
2023-02-11T16:44:35.577Z,99506.84
2023-02-11T16:47:04.041Z,99504.13
2023-02-11T16:49:35.416Z,99511.01
2023-02-11T16:52:06.876Z,99500.84
2023-02-11T16:54:34.129Z,99513.41
2023-02-11T16:57:02.301Z,99527.70
2023-02-11T16:59:29.550Z,99532.15
2023-02-11T17:01:57.800Z,99532.16
2023-02-11T17:04:30.617Z,99528.46
2023-02-11T17:06:58.631Z,99525.92
2023-02-11T17:09:30.554Z,99522.35
2023-02-11T17:11:58.115Z,99524.67
2023-02-11T17:14:24.825Z,99526.34
2023-02-11T17:16:51.905Z,99524.18
2023-02-11T17:19:21.893Z,99528.13
2023-02-11T17:21:51.799Z,99529.19
2023-02-11T17:24:19.892Z,99531.57
2023-02-11T17:26:47.301Z,99529.50
2023-02-11T17:29:16.896Z,99536.12
2023-02-11T17:31:43.987Z,99541.59
2023-02-11T17:34:11.398Z,99529.73
2023-02-11T17:36:38.477Z,99523.35
2023-02-11T17:39:08.010Z,99527.37
2023-02-11T17:41:37.314Z,99526.47
2023-02-11T17:44:05.451Z,99537.89
2023-02-11T17:46:34.762Z,99537.27
2023-02-11T17:49:02.128Z,99534.84
2023-02-11T17:51:31.662Z,99533.02
2023-02-11T17:54:02.023Z,99535.77
2023-02-11T17:56:31.393Z,99530.86
2023-02-11T17:58:58.117Z,99530.27
2023-02-11T18:01:28.018Z,99526.55
2023-02-11T18:03:55.180Z,99529.43
2023-02-11T18:06:22.173Z,99534.34
2023-02-11T18:08:48.919Z,99531.92
2023-02-11T18:11:16.699Z,99538.52
2023-02-11T18:13:45.673Z,99539.41
2023-02-11T18:16:16.045Z,99539.00
2023-02-11T18:18:43.607Z,99541.58
2023-02-11T18:21:15.854Z,99541.11
2023-02-11T18:23:43.868Z,99539.89
2023-02-11T18:26:12.366Z,99543.48
2023-02-11T18:28:39.897Z,99540.56
2023-02-11T18:31:08.070Z,99541.95
2023-02-11T18:33:37.206Z,99542.95
2023-02-11T18:36:07.840Z,99543.73
2023-02-11T18:38:34.997Z,99544.16
2023-02-11T18:41:01.936Z,99555.27
2023-02-11T18:43:33.779Z,99561.13
2023-02-11T18:46:02.597Z,99558.11
2023-02-11T18:48:29.756Z,99561.24
2023-02-11T18:50:56.517Z,99564.64
2023-02-11T18:53:24.755Z,99563.20
2023-02-11T18:55:52.780Z,99567.04
2023-02-11T18:58:21.441Z,99571.06
2023-02-11T19:00:50.050Z,99565.81
2023-02-11T19:03:17.310Z,99565.64
2023-02-11T19:05:46.595Z,99571.33
2023-02-11T19:08:14.148Z,99574.13
2023-02-11T19:10:43.186Z,99579.97
2023-02-11T19:13:10.423Z,99577.91
2023-02-11T19:15:46.271Z,99583.38
2023-02-11T19:18:16.017Z,99583.42
2023-02-11T19:20:44.118Z,99584.71
2023-02-11T19:23:11.203Z,99587.31
2023-02-11T19:25:44.555Z,99587.39
2023-02-11T19:28:11.758Z,99589.00
2023-02-11T19:30:38.933Z,99589.35
2023-02-11T19:33:07.213Z,99592.13
2023-02-11T19:35:35.778Z,99592.39
2023-02-11T19:38:04.206Z,99593.79
2023-02-11T19:40:31.462Z,99593.09
2023-02-11T19:42:58.644Z,99593.44
2023-02-11T19:45:26.964Z,99592.67
2023-02-11T19:47:55.763Z,99597.20
2023-02-11T19:50:23.109Z,99594.06
2023-02-11T19:52:50.018Z,99591.48
2023-02-11T19:55:16.783Z,99595.48
2023-02-11T19:57:44.921Z,99595.06
2023-02-11T20:00:12.249Z,99592.90
2023-02-11T20:02:40.522Z,99593.99
2023-02-11T20:05:07.768Z,99600.30
2023-02-11T20:07:35.228Z,99592.92
2023-02-11T20:10:02.904Z,99590.35
2023-02-11T20:12:29.689Z,99589.96
2023-02-11T20:14:56.678Z,99591.67
2023-02-11T20:17:23.478Z,99586.41
2023-02-11T20:19:50.397Z,99589.08
2023-02-11T20:22:17.404Z,99584.85
2023-02-11T20:24:44.896Z,99590.02
2023-02-11T20:27:12.924Z,99591.50
2023-02-11T20:29:40.074Z,99592.71
2023-02-11T20:32:07.527Z,99596.16
2023-02-11T20:34:34.535Z,99600.89
2023-02-11T20:37:02.395Z,99600.20
2023-02-11T20:39:29.172Z,99608.67
2023-02-11T20:41:57.639Z,99608.45
2023-02-11T20:44:24.707Z,99607.26
2023-02-11T20:46:54.250Z,99614.10
2023-02-11T20:49:25.325Z,99614.70
2023-02-11T20:51:53.952Z,99613.61
2023-02-11T20:54:22.510Z,99614.36
2023-02-11T20:56:51.302Z,99613.30
2023-02-11T20:59:18.878Z,99615.04
2023-02-11T21:04:32.936Z,99622.09
2023-02-11T21:07:01.691Z,99622.10
2023-02-11T21:09:33.445Z,99625.17
2023-02-11T21:12:01.120Z,99623.82
2023-02-11T21:14:28.152Z,99634.05
2023-02-11T21:16:57.715Z,99635.20
2023-02-11T21:19:25.026Z,99640.59
2023-02-11T21:21:51.870Z,99642.39
2023-02-11T21:24:18.651Z,99636.66
2023-02-11T21:26:45.456Z,99642.40
2023-02-11T21:29:12.366Z,99639.20
2023-02-11T21:31:40.189Z,99646.05
2023-02-11T21:34:07.713Z,99646.81
2023-02-11T21:36:34.600Z,99648.67
2023-02-11T21:39:03.861Z,99651.98
2023-02-11T21:41:31.080Z,99653.92
2023-02-11T21:43:58.176Z,99657.73
2023-02-11T21:46:25.009Z,99657.19
2023-02-11T21:48:52.305Z,99664.36
2023-02-11T21:51:22.468Z,99673.80
2023-02-11T21:53:54.607Z,99676.02
2023-02-11T21:56:22.464Z,99676.59
2023-02-11T21:58:53.091Z,99678.58
2023-02-11T22:01:23.326Z,99680.72
2023-02-11T22:03:50.845Z,99683.23
2023-02-11T22:06:23.073Z,99683.34
2023-02-11T22:08:50.257Z,99685.59
2023-02-11T22:11:17.343Z,99689.03
2023-02-11T22:13:44.197Z,99684.27
2023-02-11T22:16:15.522Z,99684.13
2023-02-11T22:18:46.455Z,99684.80
2023-02-11T22:21:17.034Z,99687.83
2023-02-11T22:23:44.682Z,99688.66
2023-02-11T22:26:15.011Z,99691.95
2023-02-11T22:28:42.826Z,99692.81
2023-02-11T22:31:16.953Z,99702.46
2023-02-11T22:33:44.132Z,99705.61
2023-02-11T22:36:21.522Z,99706.95
2023-02-11T22:38:49.286Z,99707.77
2023-02-11T22:41:17.269Z,99709.94
2023-02-11T22:43:45.036Z,99711.41
2023-02-11T22:46:14.594Z,99714.70
2023-02-11T22:48:41.809Z,99721.55
2023-02-11T22:51:12.456Z,99730.66
2023-02-11T22:53:39.593Z,99729.05
2023-02-11T22:56:08.753Z,99730.55
2023-02-11T22:58:37.031Z,99732.98
2023-02-11T23:01:05.445Z,99730.29
2023-02-11T23:03:33.430Z,99734.73
2023-02-11T23:06:01.126Z,99738.34
2023-02-11T23:08:30.011Z,99739.33
2023-02-11T23:11:02.904Z,99740.87
2023-02-11T23:13:29.708Z,99744.26
2023-02-11T23:15:56.637Z,99741.66
2023-02-11T23:18:23.605Z,99742.04
2023-02-11T23:20:50.303Z,99739.46
2023-02-11T23:23:17.010Z,99746.05
2023-02-11T23:25:44.259Z,99750.89
2023-02-11T23:28:12.460Z,99751.25
2023-02-11T23:30:39.495Z,99744.38
2023-02-11T23:33:06.273Z,99749.09
2023-02-11T23:35:33.282Z,99752.70
2023-02-11T23:38:00.103Z,99750.05
2023-02-11T23:40:26.849Z,99749.60
2023-02-11T23:42:53.646Z,99751.54
2023-02-11T23:45:20.614Z,99751.27
2023-02-11T23:47:47.694Z,99751.04
2023-02-11T23:50:14.876Z,99752.85
2023-02-11T23:52:41.955Z,99754.75
2023-02-11T23:55:09.478Z,99755.19
2023-02-11T23:57:36.303Z,99755.56
